sensor_id;sensor_type;location;lat;lon;timestamp;pressure;altitude;pressure_sealevel;temperature;humidity
58785;BME280;44557;51.862;19.378;2023-02-23T00:01:53;99552.45;;;-0.12;72.08
58785;BME280;44557;51.862;19.378;2023-02-23T00:03:57;99553.32;;;-0.12;71.92
58785;BME280;44557;51.862;19.378;2023-02-23T00:06:01;99551.58;;;-0.11;72.14
58785;BME280;44557;51.862;19.378;2023-02-23T00:08:04;99554.40;;;-0.10;72.49
58785;BME280;44557;51.862;19.378;2023-02-23T00:10:06;99553.15;;;-0.15;72.20
58785;BME280;44557;51.862;19.378;2023-02-23T00:12:12;99553.31;;;-0.13;72.53
58785;BME280;44557;51.862;19.378;2023-02-23T00:14:14;99549.76;;;-0.19;72.58
58785;BME280;44557;51.862;19.378;2023-02-23T00:16:20;99550.99;;;-0.22;72.79
58785;BME280;44557;51.862;19.378;2023-02-23T00:18:22;99547.54;;;-0.22;72.91
58785;BME280;44557;51.862;19.378;2023-02-23T00:20:24;99551.33;;;-0.22;73.06
58785;BME280;44557;51.862;19.378;2023-02-23T00:22:28;99551.25;;;-0.15;73.21
58785;BME280;44557;51.862;19.378;2023-02-23T00:24:29;99547.63;;;-0.16;73.14
58785;BME280;44557;51.862;19.378;2023-02-23T00:26:32;99545.42;;;-0.14;73.02
58785;BME280;44557;51.862;19.378;2023-02-23T00:28:35;99540.87;;;-0.16;73.24
58785;BME280;44557;51.862;19.378;2023-02-23T00:30:37;99547.37;;;-0.13;73.23
58785;BME280;44557;51.862;19.378;2023-02-23T00:32:38;99548.35;;;-0.12;73.41
58785;BME280;44557;51.862;19.378;2023-02-23T00:34:40;99541.24;;;-0.22;73.55
58785;BME280;44557;51.862;19.378;2023-02-23T00:36:42;99543.52;;;-0.20;73.54
58785;BME280;44557;51.862;19.378;2023-02-23T00:38:43;99544.55;;;-0.20;73.76
58785;BME280;44557;51.862;19.378;2023-02-23T00:40:46;99539.58;;;-0.24;74.10
58785;BME280;44557;51.862;19.378;2023-02-23T00:42:48;99536.64;;;-0.19;74.06
58785;BME280;44557;51.862;19.378;2023-02-23T00:44:51;99537.30;;;-0.20;74.09
58785;BME280;44557;51.862;19.378;2023-02-23T00:46:53;99539.58;;;-0.29;74.17
58785;BME280;44557;51.862;19.378;2023-02-23T00:48:57;99542.23;;;-0.27;74.44
58785;BME280;44557;51.862;19.378;2023-02-23T00:51:04;99539.30;;;-0.24;74.52
58785;BME280;44557;51.862;19.378;2023-02-23T00:53:06;99539.14;;;-0.28;74.90
58785;BME280;44557;51.862;19.378;2023-02-23T00:55:10;99540.77;;;-0.30;74.73
58785;BME280;44557;51.862;19.378;2023-02-23T00:57:12;99538.92;;;-0.28;74.99
58785;BME280;44557;51.862;19.378;2023-02-23T00:59:14;99538.73;;;-0.31;75.26
58785;BME280;44557;51.862;19.378;2023-02-23T01:01:16;99539.63;;;-0.32;75.32
58785;BME280;44557;51.862;19.378;2023-02-23T01:03:19;99534.38;;;-0.27;75.41
58785;BME280;44557;51.862;19.378;2023-02-23T01:05:20;99531.94;;;-0.27;75.72
58785;BME280;44557;51.862;19.378;2023-02-23T01:07:22;99538.01;;;-0.32;75.46
58785;BME280;44557;51.862;19.378;2023-02-23T01:09:26;99540.50;;;-0.41;75.54
58785;BME280;44557;51.862;19.378;2023-02-23T01:11:29;99536.86;;;-0.41;76.21
58785;BME280;44557;51.862;19.378;2023-02-23T01:13:34;99534.27;;;-0.37;75.93
58785;BME280;44557;51.862;19.378;2023-02-23T01:15:42;99541.73;;;-0.52;76.23
58785;BME280;44557;51.862;19.378;2023-02-23T01:17:45;99535.39;;;-0.52;76.69
58785;BME280;44557;51.862;19.378;2023-02-23T01:19:47;99538.10;;;-0.56;76.71
58785;BME280;44557;51.862;19.378;2023-02-23T01:21:48;99531.25;;;-0.46;76.70
58785;BME280;44557;51.862;19.378;2023-02-23T01:23:51;99530.86;;;-0.49;76.55
58785;BME280;44557;51.862;19.378;2023-02-23T01:25:53;99529.99;;;-0.48;76.86
58785;BME280;44557;51.862;19.378;2023-02-23T01:27:55;99530.37;;;-0.56;76.69
58785;BME280;44557;51.862;19.378;2023-02-23T01:29:56;99529.18;;;-0.54;76.80
58785;BME280;44557;51.862;19.378;2023-02-23T01:31:58;99527.89;;;-0.61;77.27
58785;BME280;44557;51.862;19.378;2023-02-23T01:34:01;99527.45;;;-0.59;77.18
58785;BME280;44557;51.862;19.378;2023-02-23T01:36:04;99528.09;;;-0.59;77.07
58785;BME280;44557;51.862;19.378;2023-02-23T01:38:05;99524.21;;;-0.59;77.16
58785;BME280;44557;51.862;19.378;2023-02-23T01:40:09;99520.95;;;-0.64;77.19
58785;BME280;44557;51.862;19.378;2023-02-23T01:42:15;99521.61;;;-0.55;77.21
58785;BME280;44557;51.862;19.378;2023-02-23T01:46:36;99513.32;;;-0.57;77.44
58785;BME280;44557;51.862;19.378;2023-02-23T01:48:41;99512.89;;;-0.61;77.47
58785;BME280;44557;51.862;19.378;2023-02-23T01:50:56;99510.08;;;-0.62;77.39
58785;BME280;44557;51.862;19.378;2023-02-23T01:53:00;99507.38;;;-0.57;77.21
58785;BME280;44557;51.862;19.378;2023-02-23T01:55:02;99507.48;;;-0.64;77.55
58785;BME280;44557;51.862;19.378;2023-02-23T01:57:06;99503.20;;;-0.61;77.42
58785;BME280;44557;51.862;19.378;2023-02-23T01:59:12;99501.04;;;-0.62;77.49
58785;BME280;44557;51.862;19.378;2023-02-23T02:01:15;99501.38;;;-0.60;77.38
58785;BME280;44557;51.862;19.378;2023-02-23T02:03:38;99502.13;;;-0.63;77.52
58785;BME280;44557;51.862;19.378;2023-02-23T02:05:43;99499.15;;;-0.69;77.67
58785;BME280;44557;51.862;19.378;2023-02-23T02:07:47;99504.84;;;-0.68;77.82
58785;BME280;44557;51.862;19.378;2023-02-23T02:09:53;99496.66;;;-0.71;78.08
58785;BME280;44557;51.862;19.378;2023-02-23T02:12:11;99498.34;;;-0.83;78.03
58785;BME280;44557;51.862;19.378;2023-02-23T02:14:17;99495.90;;;-0.79;78.15
58785;BME280;44557;51.862;19.378;2023-02-23T02:16:59;99492.98;;;-0.88;78.20
58785;BME280;44557;51.862;19.378;2023-02-23T02:22:21;99487.94;;;-0.85;78.31
58785;BME280;44557;51.862;19.378;2023-02-23T02:27:35;99487.98;;;-0.87;78.07
58785;BME280;44557;51.862;19.378;2023-02-23T02:30:14;99487.30;;;-0.91;78.18
58785;BME280;44557;51.862;19.378;2023-02-23T02:32:44;99485.99;;;-0.89;78.07
58785;BME280;44557;51.862;19.378;2023-02-23T02:35:23;99480.10;;;-0.83;77.84
58785;BME280;44557;51.862;19.378;2023-02-23T02:38:07;99483.34;;;-0.86;77.86
58785;BME280;44557;51.862;19.378;2023-02-23T02:40:26;99481.94;;;-0.96;77.65
58785;BME280;44557;51.862;19.378;2023-02-23T02:42:37;99480.45;;;-1.00;77.80
58785;BME280;44557;51.862;19.378;2023-02-23T02:44:48;99478.52;;;-0.99;77.59
58785;BME280;44557;51.862;19.378;2023-02-23T02:46:56;99478.10;;;-0.92;77.45
58785;BME280;44557;51.862;19.378;2023-02-23T02:49:05;99474.84;;;-1.03;77.58
58785;BME280;44557;51.862;19.378;2023-02-23T02:51:22;99472.04;;;-0.95;77.65
58785;BME280;44557;51.862;19.378;2023-02-23T02:53:40;99472.15;;;-0.90;77.31
58785;BME280;44557;51.862;19.378;2023-02-23T02:55:46;99471.31;;;-1.09;77.60
58785;BME280;44557;51.862;19.378;2023-02-23T02:57:50;99471.97;;;-1.08;77.76
58785;BME280;44557;51.862;19.378;2023-02-23T02:59:54;99468.55;;;-1.10;77.77
58785;BME280;44557;51.862;19.378;2023-02-23T03:02:21;99469.10;;;-1.04;77.72
58785;BME280;44557;51.862;19.378;2023-02-23T03:04:42;99461.64;;;-1.07;77.85
58785;BME280;44557;51.862;19.378;2023-02-23T03:07:30;99461.96;;;-1.08;77.73
58785;BME280;44557;51.862;19.378;2023-02-23T03:12:57;99462.88;;;-1.14;78.19
58785;BME280;44557;51.862;19.378;2023-02-23T03:15:23;99456.27;;;-1.12;78.25
58785;BME280;44557;51.862;19.378;2023-02-23T03:18:00;99461.41;;;-1.11;78.36
58785;BME280;44557;51.862;19.378;2023-02-23T03:20:42;99457.24;;;-1.16;78.70
58785;BME280;44557;51.862;19.378;2023-02-23T03:25:50;99452.65;;;-1.19;78.96
58785;BME280;44557;51.862;19.378;2023-02-23T03:28:24;99457.04;;;-1.13;79.06
58785;BME280;44557;51.862;19.378;2023-02-23T03:30:54;99451.41;;;-1.11;79.02
58785;BME280;44557;51.862;19.378;2023-02-23T03:33:31;99454.82;;;-1.17;79.15
58785;BME280;44557;51.862;19.378;2023-02-23T03:36:23;99450.02;;;-1.17;79.33
58785;BME280;44557;51.862;19.378;2023-02-23T03:39:16;99449.90;;;-1.12;79.51
58785;BME280;44557;51.862;19.378;2023-02-23T03:41:40;99447.27;;;-1.11;79.40
58785;BME280;44557;51.862;19.378;2023-02-23T03:44:14;99446.11;;;-1.14;79.64
58785;BME280;44557;51.862;19.378;2023-02-23T03:46:38;99442.76;;;-1.16;79.66
58785;BME280;44557;51.862;19.378;2023-02-23T03:49:01;99444.05;;;-1.13;79.67
58785;BME280;44557;51.862;19.378;2023-02-23T03:51:25;99446.76;;;-1.21;80.10
58785;BME280;44557;51.862;19.378;2023-02-23T03:53:51;99441.61;;;-1.22;80.32
58785;BME280;44557;51.862;19.378;2023-02-23T03:56:14;99445.98;;;-1.25;80.46
58785;BME280;44557;51.862;19.378;2023-02-23T03:58:39;99443.81;;;-1.27;80.58
58785;BME280;44557;51.862;19.378;2023-02-23T04:01:04;99441.89;;;-1.24;80.68
58785;BME280;44557;51.862;19.378;2023-02-23T04:03:27;99442.96;;;-1.24;80.79
58785;BME280;44557;51.862;19.378;2023-02-23T04:05:52;99443.28;;;-1.26;80.87
58785;BME280;44557;51.862;19.378;2023-02-23T04:08:17;99441.34;;;-1.23;80.81
58785;BME280;44557;51.862;19.378;2023-02-23T04:10:47;99442.98;;;-1.22;81.20
58785;BME280;44557;51.862;19.378;2023-02-23T04:13:17;99442.65;;;-1.21;81.18
58785;BME280;44557;51.862;19.378;2023-02-23T04:15:35;99442.69;;;-1.27;81.32
58785;BME280;44557;51.862;19.378;2023-02-23T04:17:38;99441.00;;;-1.34;81.62
58785;BME280;44557;51.862;19.378;2023-02-23T04:19:51;99444.84;;;-1.31;81.45
58785;BME280;44557;51.862;19.378;2023-02-23T04:21:53;99443.98;;;-1.33;81.75
58785;BME280;44557;51.862;19.378;2023-02-23T04:23:54;99440.69;;;-1.34;81.94
58785;BME280;44557;51.862;19.378;2023-02-23T04:25:56;99438.68;;;-1.33;81.96
58785;BME280;44557;51.862;19.378;2023-02-23T04:27:58;99441.66;;;-1.29;81.85
58785;BME280;44557;51.862;19.378;2023-02-23T04:29:59;99440.10;;;-1.28;81.73
58785;BME280;44557;51.862;19.378;2023-02-23T04:32:01;99439.34;;;-1.24;81.75
58785;BME280;44557;51.862;19.378;2023-02-23T04:34:03;99437.93;;;-1.24;81.80
58785;BME280;44557;51.862;19.378;2023-02-23T04:36:05;99438.48;;;-1.27;82.01
58785;BME280;44557;51.862;19.378;2023-02-23T04:38:07;99436.10;;;-1.24;81.83
58785;BME280;44557;51.862;19.378;2023-02-23T04:40:09;99434.69;;;-1.28;82.22
58785;BME280;44557;51.862;19.378;2023-02-23T04:42:11;99431.23;;;-1.27;82.01
58785;BME280;44557;51.862;19.378;2023-02-23T04:44:13;99435.89;;;-1.21;82.15
58785;BME280;44557;51.862;19.378;2023-02-23T04:46:15;99434.80;;;-1.27;82.24
58785;BME280;44557;51.862;19.378;2023-02-23T04:48:16;99430.87;;;-1.19;81.98
58785;BME280;44557;51.862;19.378;2023-02-23T04:50:18;99427.73;;;-1.23;82.14
58785;BME280;44557;51.862;19.378;2023-02-23T04:52:20;99432.21;;;-1.21;82.24
58785;BME280;44557;51.862;19.378;2023-02-23T04:54:22;99430.53;;;-1.22;82.18
58785;BME280;44557;51.862;19.378;2023-02-23T04:56:24;99434.59;;;-1.24;82.38
58785;BME280;44557;51.862;19.378;2023-02-23T04:58:26;99436.58;;;-1.26;82.31
58785;BME280;44557;51.862;19.378;2023-02-23T05:00:28;99432.74;;;-1.23;82.77
58785;BME280;44557;51.862;19.378;2023-02-23T05:02:30;99433.40;;;-1.23;82.38
58785;BME280;44557;51.862;19.378;2023-02-23T05:04:32;99432.20;;;-1.25;82.62
58785;BME280;44557;51.862;19.378;2023-02-23T05:06:37;99433.14;;;-1.22;82.51
58785;BME280;44557;51.862;19.378;2023-02-23T05:08:39;99428.98;;;-1.23;82.53
58785;BME280;44557;51.862;19.378;2023-02-23T05:10:41;99424.20;;;-1.23;82.41
58785;BME280;44557;51.862;19.378;2023-02-23T05:12:42;99427.89;;;-1.26;82.43
58785;BME280;44557;51.862;19.378;2023-02-23T05:14:44;99425.45;;;-1.27;82.78
58785;BME280;44557;51.862;19.378;2023-02-23T05:16:45;99424.19;;;-1.29;82.65
58785;BME280;44557;51.862;19.378;2023-02-23T05:18:47;99421.34;;;-1.31;83.06
58785;BME280;44557;51.862;19.378;2023-02-23T05:20:50;99421.13;;;-1.34;83.18
58785;BME280;44557;51.862;19.378;2023-02-23T05:22:51;99422.90;;;-1.35;83.16
58785;BME280;44557;51.862;19.378;2023-02-23T05:24:54;99420.52;;;-1.39;83.33
58785;BME280;44557;51.862;19.378;2023-02-23T05:26:55;99420.90;;;-1.34;83.45
58785;BME280;44557;51.862;19.378;2023-02-23T05:28:58;99419.28;;;-1.35;83.40
58785;BME280;44557;51.862;19.378;2023-02-23T05:31:00;99422.36;;;-1.29;83.25
58785;BME280;44557;51.862;19.378;2023-02-23T05:33:04;99415.77;;;-1.34;83.52
58785;BME280;44557;51.862;19.378;2023-02-23T05:35:05;99419.66;;;-1.31;83.43
58785;BME280;44557;51.862;19.378;2023-02-23T05:37:08;99423.45;;;-1.32;83.51
58785;BME280;44557;51.862;19.378;2023-02-23T05:39:10;99415.66;;;-1.34;83.48
58785;BME280;44557;51.862;19.378;2023-02-23T05:41:14;99418.42;;;-1.30;83.43
58785;BME280;44557;51.862;19.378;2023-02-23T05:43:16;99417.52;;;-1.27;83.41
58785;BME280;44557;51.862;19.378;2023-02-23T05:45:21;99417.52;;;-1.27;83.48
58785;BME280;44557;51.862;19.378;2023-02-23T05:47:22;99413.89;;;-1.25;83.55
58785;BME280;44557;51.862;19.378;2023-02-23T05:49:24;99414.00;;;-1.22;83.26
58785;BME280;44557;51.862;19.378;2023-02-23T05:51:27;99415.14;;;-1.22;83.31
58785;BME280;44557;51.862;19.378;2023-02-23T05:53:29;99415.27;;;-1.13;82.96
58785;BME280;44557;51.862;19.378;2023-02-23T05:55:31;99414.98;;;-1.03;82.62
58785;BME280;44557;51.862;19.378;2023-02-23T05:57:34;99413.31;;;-0.97;82.14
58785;BME280;44557;51.862;19.378;2023-02-23T05:59:35;99411.90;;;-0.84;81.84
58785;BME280;44557;51.862;19.378;2023-02-23T06:01:37;99414.83;;;-0.73;81.32
58785;BME280;44557;51.862;19.378;2023-02-23T06:03:39;99412.11;;;-0.63;80.85
58785;BME280;44557;51.862;19.378;2023-02-23T06:05:40;99409.55;;;-0.53;80.47
58785;BME280;44557;51.862;19.378;2023-02-23T06:07:43;99415.15;;;-0.32;79.93
58785;BME280;44557;51.862;19.378;2023-02-23T06:09:45;99415.61;;;-0.28;79.42
58785;BME280;44557;51.862;19.378;2023-02-23T06:11:46;99417.69;;;-0.00;78.36
58785;BME280;44557;51.862;19.378;2023-02-23T06:13:48;99415.62;;;0.20;77.51
58785;BME280;44557;51.862;19.378;2023-02-23T06:15:50;99414.60;;;0.31;76.64
58785;BME280;44557;51.862;19.378;2023-02-23T06:17:52;99410.91;;;0.50;75.91
58785;BME280;44557;51.862;19.378;2023-02-23T06:19:53;99409.98;;;0.60;75.37
58785;BME280;44557;51.862;19.378;2023-02-23T06:21:56;99414.00;;;0.69;75.11
58785;BME280;44557;51.862;19.378;2023-02-23T06:23:58;99409.44;;;0.52;75.70
58785;BME280;44557;51.862;19.378;2023-02-23T06:26:01;99412.29;;;0.48;75.76
58785;BME280;44557;51.862;19.378;2023-02-23T06:28:03;99407.63;;;0.73;74.82
58785;BME280;44557;51.862;19.378;2023-02-23T06:30:05;99418.64;;;0.74;74.65
58785;BME280;44557;51.862;19.378;2023-02-23T06:32:08;99416.17;;;0.67;74.65
58785;BME280;44557;51.862;19.378;2023-02-23T06:34:09;99417.04;;;0.60;74.72
58785;BME280;44557;51.862;19.378;2023-02-23T06:36:12;99413.29;;;0.63;75.03
58785;BME280;44557;51.862;19.378;2023-02-23T06:38:14;99414.55;;;0.48;74.94
58785;BME280;44557;51.862;19.378;2023-02-23T06:40:16;99414.11;;;0.41;75.74
58785;BME280;44557;51.862;19.378;2023-02-23T06:42:17;99417.95;;;0.31;76.46
58785;BME280;44557;51.862;19.378;2023-02-23T06:44:20;99410.45;;;0.28;76.25
58785;BME280;44557;51.862;19.378;2023-02-23T06:46:24;99415.72;;;0.10;77.19
58785;BME280;44557;51.862;19.378;2023-02-23T06:48:26;99418.02;;;0.17;77.27
58785;BME280;44557;51.862;19.378;2023-02-23T06:50:28;99420.27;;;0.09;77.20
58785;BME280;44557;51.862;19.378;2023-02-23T06:52:30;99423.95;;;-0.06;77.86
58785;BME280;44557;51.862;19.378;2023-02-23T06:54:31;99417.67;;;-0.06;78.08
58785;BME280;44557;51.862;19.378;2023-02-23T06:56:35;99418.73;;;-0.01;77.90
58785;BME280;44557;51.862;19.378;2023-02-23T06:58:36;99420.23;;;-0.09;77.77
58785;BME280;44557;51.862;19.378;2023-02-23T07:00:39;99418.98;;;-0.06;78.00
58785;BME280;44557;51.862;19.378;2023-02-23T07:02:43;99418.63;;;-0.01;77.40
58785;BME280;44557;51.862;19.378;2023-02-23T07:04:45;99414.75;;;0.07;77.60
58785;BME280;44557;51.862;19.378;2023-02-23T07:06:47;99417.52;;;0.20;76.97
58785;BME280;44557;51.862;19.378;2023-02-23T07:08:49;99412.09;;;0.33;76.57
58785;BME280;44557;51.862;19.378;2023-02-23T07:10:51;99421.77;;;0.27;76.11
58785;BME280;44557;51.862;19.378;2023-02-23T07:12:53;99413.98;;;0.34;75.71
58785;BME280;44557;51.862;19.378;2023-02-23T07:14:55;99416.56;;;0.40;75.58
58785;BME280;44557;51.862;19.378;2023-02-23T07:16:56;99413.27;;;0.48;75.50
58785;BME280;44557;51.862;19.378;2023-02-23T07:18:58;99412.39;;;0.50;75.70
58785;BME280;44557;51.862;19.378;2023-02-23T07:21:00;99409.80;;;0.48;75.51
58785;BME280;44557;51.862;19.378;2023-02-23T07:23:02;99409.10;;;0.55;75.20
58785;BME280;44557;51.862;19.378;2023-02-23T07:25:03;99406.80;;;0.68;74.74
58785;BME280;44557;51.862;19.378;2023-02-23T07:27:06;99409.34;;;0.70;74.50
58785;BME280;44557;51.862;19.378;2023-02-23T07:29:09;99406.99;;;0.72;74.47
58785;BME280;44557;51.862;19.378;2023-02-23T07:31:12;99405.53;;;0.79;74.17
58785;BME280;44557;51.862;19.378;2023-02-23T07:33:15;99400.20;;;0.89;73.73
58785;BME280;44557;51.862;19.378;2023-02-23T07:35:17;99399.97;;;0.92;73.77
58785;BME280;44557;51.862;19.378;2023-02-23T07:37:19;99402.25;;;0.91;73.44
58785;BME280;44557;51.862;19.378;2023-02-23T07:39:21;99396.02;;;1.03;73.37
58785;BME280;44557;51.862;19.378;2023-02-23T07:41:23;99397.34;;;1.28;72.48
58785;BME280;44557;51.862;19.378;2023-02-23T07:43:25;99394.70;;;1.26;72.78
58785;BME280;44557;51.862;19.378;2023-02-23T07:45:28;99398.27;;;1.20;72.80
58785;BME280;44557;51.862;19.378;2023-02-23T07:47:30;99400.48;;;1.24;72.83
58785;BME280;44557;51.862;19.378;2023-02-23T07:49:33;99397.52;;;1.19;72.85
58785;BME280;44557;51.862;19.378;2023-02-23T07:51:34;99395.30;;;1.27;73.02
58785;BME280;44557;51.862;19.378;2023-02-23T07:53:37;99391.36;;;1.23;73.35
58785;BME280;44557;51.862;19.378;2023-02-23T07:55:39;99395.52;;;1.38;73.21
58785;BME280;44557;51.862;19.378;2023-02-23T07:57:40;99391.66;;;1.31;73.39
58785;BME280;44557;51.862;19.378;2023-02-23T07:59:42;99389.80;;;1.50;72.86
58785;BME280;44557;51.862;19.378;2023-02-23T08:01:44;99392.26;;;1.48;72.99
58785;BME280;44557;51.862;19.378;2023-02-23T08:03:46;99388.11;;;1.51;73.23
58785;BME280;44557;51.862;19.378;2023-02-23T08:05:50;99389.25;;;1.39;73.54
58785;BME280;44557;51.862;19.378;2023-02-23T08:07:53;99383.88;;;1.50;73.68
58785;BME280;44557;51.862;19.378;2023-02-23T08:09:55;99385.81;;;1.36;74.00
58785;BME280;44557;51.862;19.378;2023-02-23T08:11:59;99381.89;;;1.32;74.32
58785;BME280;44557;51.862;19.378;2023-02-23T08:14:01;99382.12;;;1.41;74.35
58785;BME280;44557;51.862;19.378;2023-02-23T08:16:04;99383.88;;;1.46;73.79
58785;BME280;44557;51.862;19.378;2023-02-23T08:18:06;99385.08;;;1.49;73.97
58785;BME280;44557;51.862;19.378;2023-02-23T08:20:08;99381.91;;;1.77;73.12
58785;BME280;44557;51.862;19.378;2023-02-23T08:22:10;99378.71;;;1.87;73.00
58785;BME280;44557;51.862;19.378;2023-02-23T08:24:11;99380.05;;;1.88;72.51
58785;BME280;44557;51.862;19.378;2023-02-23T08:26:14;99383.50;;;1.91;72.41
58785;BME280;44557;51.862;19.378;2023-02-23T08:28:16;99376.16;;;2.09;71.87
58785;BME280;44557;51.862;19.378;2023-02-23T08:30:22;99376.94;;;2.12;71.96
58785;BME280;44557;51.862;19.378;2023-02-23T08:32:25;99381.88;;;2.12;71.89
58785;BME280;44557;51.862;19.378;2023-02-23T08:34:27;99376.43;;;2.33;71.62
58785;BME280;44557;51.862;19.378;2023-02-23T08:36:33;99370.20;;;2.67;70.47
58785;BME280;44557;51.862;19.378;2023-02-23T08:38:36;99374.65;;;2.64;70.21
58785;BME280;44557;51.862;19.378;2023-02-23T08:40:40;99372.94;;;2.66;70.14
58785;BME280;44557;51.862;19.378;2023-02-23T08:42:42;99376.55;;;2.49;70.39
58785;BME280;44557;51.862;19.378;2023-02-23T08:44:45;99373.96;;;2.52;70.57
58785;BME280;44557;51.862;19.378;2023-02-23T08:46:46;99372.20;;;2.79;69.91
58785;BME280;44557;51.862;19.378;2023-02-23T08:48:48;99371.45;;;2.98;69.22
58785;BME280;44557;51.862;19.378;2023-02-23T08:50:49;99367.20;;;3.00;69.02
58785;BME280;44557;51.862;19.378;2023-02-23T08:52:52;99363.13;;;2.95;69.34
58785;BME280;44557;51.862;19.378;2023-02-23T08:54:54;99358.58;;;3.29;68.57
58785;BME280;44557;51.862;19.378;2023-02-23T08:56:56;99358.66;;;3.40;67.73
58785;BME280;44557;51.862;19.378;2023-02-23T08:59:02;99361.42;;;3.38;67.80
58785;BME280;44557;51.862;19.378;2023-02-23T09:01:04;99357.37;;;3.21;68.05
58785;BME280;44557;51.862;19.378;2023-02-23T09:03:05;99350.30;;;3.47;68.02
58785;BME280;44557;51.862;19.378;2023-02-23T09:05:08;99351.02;;;3.32;68.15
58785;BME280;44557;51.862;19.378;2023-02-23T09:07:16;99348.81;;;3.40;68.23
58785;BME280;44557;51.862;19.378;2023-02-23T09:09:17;99348.55;;;3.66;67.78
58785;BME280;44557;51.862;19.378;2023-02-23T09:11:20;99345.31;;;3.75;67.59
58785;BME280;44557;51.862;19.378;2023-02-23T09:13:22;99341.61;;;3.89;67.24
58785;BME280;44557;51.862;19.378;2023-02-23T09:15:23;99338.88;;;4.23;66.65
58785;BME280;44557;51.862;19.378;2023-02-23T09:17:25;99337.30;;;4.02;66.73
58785;BME280;44557;51.862;19.378;2023-02-23T09:19:27;99338.73;;;3.91;67.29
58785;BME280;44557;51.862;19.378;2023-02-23T09:21:28;99346.35;;;3.77;67.55
58785;BME280;44557;51.862;19.378;2023-02-23T09:23:32;99339.36;;;3.48;68.31
58785;BME280;44557;51.862;19.378;2023-02-23T09:25:38;99336.14;;;3.42;68.74
58785;BME280;44557;51.862;19.378;2023-02-23T09:27:44;99334.02;;;3.67;68.08
58785;BME280;44557;51.862;19.378;2023-02-23T09:29:46;99337.85;;;3.70;68.21
58785;BME280;44557;51.862;19.378;2023-02-23T09:31:48;99336.27;;;3.41;69.00
58785;BME280;44557;51.862;19.378;2023-02-23T09:33:53;99333.20;;;3.44;69.51
58785;BME280;44557;51.862;19.378;2023-02-23T09:35:55;99327.25;;;3.63;69.01
58785;BME280;44557;51.862;19.378;2023-02-23T09:37:59;99327.70;;;3.81;68.50
58785;BME280;44557;51.862;19.378;2023-02-23T09:40:01;99323.84;;;3.67;68.68
58785;BME280;44557;51.862;19.378;2023-02-23T09:47:10;99318.92;;;3.93;68.15
58785;BME280;44557;51.862;19.378;2023-02-23T09:49:18;99317.56;;;4.00;67.76
58785;BME280;44557;51.862;19.378;2023-02-23T09:51:22;99318.07;;;3.80;68.56
58785;BME280;44557;51.862;19.378;2023-02-23T09:53:43;99313.27;;;3.93;68.36
58785;BME280;44557;51.862;19.378;2023-02-23T09:55:47;99315.38;;;4.03;68.14
58785;BME280;44557;51.862;19.378;2023-02-23T09:57:51;99316.79;;;3.98;68.20
58785;BME280;44557;51.862;19.378;2023-02-23T09:59:54;99310.64;;;3.92;68.58
58785;BME280;44557;51.862;19.378;2023-02-23T10:02:21;99307.38;;;4.20;67.83
58785;BME280;44557;51.862;19.378;2023-02-23T10:04:35;99303.91;;;4.29;67.69
58785;BME280;44557;51.862;19.378;2023-02-23T10:06:44;99298.35;;;4.29;67.23
58785;BME280;44557;51.862;19.378;2023-02-23T10:09:42;99293.29;;;4.50;67.19
58785;BME280;44557;51.862;19.378;2023-02-23T10:14:00;99294.25;;;4.86;65.83
58785;BME280;44557;51.862;19.378;2023-02-23T10:16:36;99287.05;;;4.91;65.72
58785;BME280;44557;51.862;19.378;2023-02-23T10:18:55;99282.58;;;4.91;65.67
58785;BME280;44557;51.862;19.378;2023-02-23T10:21:04;99286.94;;;4.86;65.79
58785;BME280;44557;51.862;19.378;2023-02-23T10:23:18;99285.45;;;5.02;65.42
58785;BME280;44557;51.862;19.378;2023-02-23T10:25:25;99281.19;;;5.19;64.90
58785;BME280;44557;51.862;19.378;2023-02-23T10:27:37;99283.08;;;5.03;65.05
58785;BME280;44557;51.862;19.378;2023-02-23T10:29:50;99281.71;;;4.97;65.30
58785;BME280;44557;51.862;19.378;2023-02-23T10:31:57;99273.86;;;5.04;65.73
58785;BME280;44557;51.862;19.378;2023-02-23T10:34:04;99273.05;;;5.25;64.91
58785;BME280;44557;51.862;19.378;2023-02-23T10:36:22;99270.73;;;5.44;64.36
58785;BME280;44557;51.862;19.378;2023-02-23T10:38:26;99266.82;;;5.54;64.30
58785;BME280;44557;51.862;19.378;2023-02-23T10:40:30;99262.50;;;5.84;63.38
58785;BME280;44557;51.862;19.378;2023-02-23T10:42:33;99261.95;;;5.58;63.77
58785;BME280;44557;51.862;19.378;2023-02-23T10:44:35;99258.70;;;5.57;63.99
58785;BME280;44557;51.862;19.378;2023-02-23T10:46:39;99258.76;;;5.73;63.65
58785;BME280;44557;51.862;19.378;2023-02-23T10:48:42;99262.89;;;5.53;63.89
58785;BME280;44557;51.862;19.378;2023-02-23T10:50:44;99262.25;;;5.31;64.41
58785;BME280;44557;51.862;19.378;2023-02-23T10:52:52;99250.86;;;5.36;64.67
58785;BME280;44557;51.862;19.378;2023-02-23T10:54:55;99242.12;;;5.42;64.56
58785;BME280;44557;51.862;19.378;2023-02-23T10:56:58;99242.61;;;5.38;65.00
58785;BME280;44557;51.862;19.378;2023-02-23T10:59:00;99230.30;;;5.36;65.13
58785;BME280;44557;51.862;19.378;2023-02-23T11:01:03;99228.76;;;5.53;64.56
58785;BME280;44557;51.862;19.378;2023-02-23T11:03:17;99232.62;;;5.45;64.72
58785;BME280;44557;51.862;19.378;2023-02-23T11:05:36;99218.15;;;5.81;64.38
58785;BME280;44557;51.862;19.378;2023-02-23T11:07:43;99216.52;;;5.75;64.07
58785;BME280;44557;51.862;19.378;2023-02-23T11:09:45;99209.75;;;5.81;64.48
58785;BME280;44557;51.862;19.378;2023-02-23T11:12:14;99209.13;;;5.68;63.98
58785;BME280;44557;51.862;19.378;2023-02-23T11:14:24;99203.81;;;5.33;65.28
58785;BME280;44557;51.862;19.378;2023-02-23T11:16:29;99206.44;;;5.31;65.65
58785;BME280;44557;51.862;19.378;2023-02-23T11:18:41;99204.11;;;5.34;65.93
58785;BME280;44557;51.862;19.378;2023-02-23T11:20:43;99199.56;;;5.40;65.79
58785;BME280;44557;51.862;19.378;2023-02-23T11:22:45;99191.09;;;5.51;66.01
58785;BME280;44557;51.862;19.378;2023-02-23T11:24:47;99190.57;;;5.60;65.45
58785;BME280;44557;51.862;19.378;2023-02-23T11:26:52;99191.33;;;5.34;66.10
58785;BME280;44557;51.862;19.378;2023-02-23T11:28:58;99181.67;;;5.39;66.31
58785;BME280;44557;51.862;19.378;2023-02-23T11:31:30;99184.64;;;5.35;66.07